Impacts METAR Board INFO
IDs:

KBDR - Bridgeport/Sikorsky, CT, US

Updated at: 0147 UTC 17 Oct 2017
Potential Impact None Slight Moderate High
Time16/13Z 16/14Z 16/15Z 16/16Z 16/17Z 16/18Z 16/19Z 16/20Z 16/21Z 16/22Z 16/23Z 17/00Z 17/01Z
VIS10 10 10 10 10 10 10 10 10 10 10 10 10
CIG34 -- -- -- -- -- -- -- -- -- -- -- --
CoverOVCSCTCLRFEWCLRCLRCLRCLRCLRCLRCLRCLRCLR
FltCatVFRVFRVFRVFRVFRVFRVFRVFRVFRVFRVFRVFRVFR
WX--------------------------
WDir350320340340330330320320350340330330320
WSpd12 9 7 8 15 11 11 11 9 10 7 4 7
WGst-- -- -- -- 21 -- -- 18 -- -- -- -- --
Raw hourly METARs
KBDR 161252Z 35012KT 10SM OVC034 15/08 A2994 RMK AO2 SLP139 T01500078 $
KBDR 161352Z 32009KT 10SM SCT036 14/06 A2998 RMK AO2 SLP151 T01390061 $
KBDR 161452Z 34007KT 10SM CLR 14/07 A2998 RMK AO2 SLP150 T01440067 50021 $
KBDR 161552Z 34008KT 10SM FEW034 14/06 A2998 RMK AO2 SLP152 T01440061
KBDR 161652Z 33015G21KT 10SM CLR 13/05 A3000 RMK AO2 SLP157 T01330050
KBDR 161752Z 33011KT 10SM CLR 13/04 A2998 RMK AO2 SLP153 T01280039 10156 20128 50003
KBDR 161852Z 32011KT 10SM CLR 13/04 A3000 RMK AO2 SLP159 T01280044
KBDR 161952Z 32011G18KT 10SM CLR 13/04 A3002 RMK AO2 SLP166 T01330039
KBDR 162052Z 35009KT 10SM CLR 12/04 A3004 RMK AO2 SLP171 T01220039 51018
KBDR 162152Z 34010KT 10SM CLR 12/03 A3007 RMK AO2 SLP182 T01220028
KBDR 162252Z 33007KT 10SM CLR 11/03 A3009 RMK AO2 SLP190 T01110028
KBDR 162352Z 33004KT 10SM CLR 10/03 A3012 RMK AO2 SLP201 T01000028 10139 20100 51029
KBDR 170052Z 32007KT 10SM CLR 10/02 A3014 RMK AO2 SLP207 T01000022